Time;durP1;ratioP1;P1;durP2;ratioP2;P2;SDS_P1;SDS_P2;PMS_P1;PMS_P2;Temp;Humidity;BMP_temperature;BMP_pressure;BME280_temperature;BME280_humidity;BME280_pressure;Samples;Min_cycle;Max_cycle;Signal;HPM_P1;HPM_P2
2021/08/31 00:01:16;;;;;;;;;;;;;;;22.16;27.87;97732.13;5002136;28;914;-79
2021/08/31 00:03:41;;;;;;;;;;;;;;;22.13;27.90;97733.06;5001379;28;863;-79
2021/08/31 00:06:07;;;;;;;;;;;;;;;22.29;27.75;97736.53;5002305;28;848;-79
2021/08/31 00:08:32;;;;;;;;;;;;;;;22.22;27.75;97736.75;5000301;28;827;-79
2021/08/31 00:10:58;;;;;;;;;;;;;;;22.26;27.59;97736.66;5002580;28;615;-79
2021/08/31 00:13:23;;;;;;;;;;;;;;;22.25;27.64;97735.84;5000476;28;1898;-79
2021/08/31 00:15:49;;;;;;;;;;;;;;;22.29;27.60;97733.72;5001195;28;878;-79
2021/08/31 00:18:14;;;;;;;;;;;;;;;22.35;27.80;97734.72;5000493;28;915;-79
2021/08/31 00:20:40;;;;;;;;;;;;;;;22.32;27.92;97743.31;5002185;28;854;-79
2021/08/31 00:23:05;;;;;;;;;;;;;;;22.36;27.85;97732.66;4984203;28;922;-79
2021/08/31 00:25:31;;;;;;;;;;;;;;;22.62;27.10;97737.00;5000973;28;831;-79
2021/08/31 00:27:57;;;;;;;;;;;;;;;22.68;27.14;97745.72;5001448;28;724;-79
2021/08/31 00:30:22;;;;;;;;;;;;;;;22.34;27.67;97743.69;5000312;28;1161;-79
2021/08/31 00:32:48;;;;;;;;;;;;;;;22.29;28.08;97744.25;5000681;28;1906;-79
2021/08/31 00:35:13;;;;;;;;;;;;;;;22.33;27.81;97742.88;5000760;28;992;-78
2021/08/31 00:37:39;;;;;;;;;;;;;;;22.45;27.69;97748.97;5001882;28;674;-78
2021/08/31 00:40:05;;;;;;;;;;;;;;;22.40;27.72;97746.72;5001430;28;650;-77
2021/08/31 00:42:30;;;;;;;;;;;;;;;22.46;27.74;97750.56;5001232;28;675;-79
2021/08/31 00:44:56;;;;;;;;;;;;;;;22.42;27.66;97758.38;5000775;28;1104;-79
2021/08/31 00:47:21;;;;;;;;;;;;;;;22.40;27.63;97758.06;4983735;28;900;-79
2021/08/31 00:49:47;;;;;;;;;;;;;;;22.48;27.79;97753.72;5000072;28;952;-79
2021/08/31 00:52:14;;;;;;;;;;;;;;;22.66;27.33;97753.91;5001774;28;1966;-79
2021/08/31 00:54:40;;;;;;;;;;;;;;;22.51;27.61;97750.78;5000335;28;819;-79
2021/08/31 00:57:06;;;;;;;;;;;;;;;22.50;27.81;97757.69;5005203;28;639;-79
2021/08/31 00:59:31;;;;;;;;;;;;;;;22.35;27.91;97751.72;5003833;28;918;-79
2021/08/31 01:01:57;;;;;;;;;;;;;;;22.44;27.70;97747.41;5005126;28;886;-79
2021/08/31 01:04:23;;;;;;;;;;;;;;;22.42;27.73;97755.56;5004252;28;912;-79
2021/08/31 01:06:52;;;;;;;;;;;;;;;22.23;28.09;97749.69;5004246;28;675;-79
2021/08/31 01:09:21;;;;;;;;;;;;;;;22.39;27.96;97750.81;5004601;28;734;-79
2021/08/31 01:11:47;;;;;;;;;;;;;;;22.39;27.95;97750.81;5004392;28;905;-79
2021/08/31 01:14:12;;;;;;;;;;;;;;;22.44;27.77;97751.03;5003500;28;1958;-79
2021/08/31 01:16:38;;;;;;;;;;;;;;;22.54;27.65;97754.75;5004910;28;849;-79
2021/08/31 01:19:05;;;;;;;;;;;;;;;22.49;28.02;97750.44;5004413;28;866;-79
2021/08/31 01:21:31;;;;;;;;;;;;;;;22.44;27.86;97753.06;5005064;28;651;-79
2021/08/31 01:23:56;;;;;;;;;;;;;;;22.50;27.78;97749.19;5003674;28;856;-79
2021/08/31 01:26:23;;;;;;;;;;;;;;;22.48;27.94;97748.06;5004063;28;794;-79
2021/08/31 01:29:01;;;;;;;;;;;;;;;22.66;27.86;97747.44;5002745;28;1095;-79
2021/08/31 01:31:27;;;;;;;;;;;;;;;22.47;27.94;97743.63;5003863;28;916;-79
2021/08/31 01:33:54;;;;;;;;;;;;;;;22.47;27.95;97740.81;5004199;28;1910;-78
2021/08/31 01:36:23;;;;;;;;;;;;;;;22.17;28.34;97737.34;5004927;28;670;-79
2021/08/31 01:38:49;;;;;;;;;;;;;;;22.39;28.29;97745.94;5003031;28;882;-79
2021/08/31 01:41:15;;;;;;;;;;;;;;;22.36;28.40;97741.97;5004593;28;706;-79
2021/08/31 01:43:40;;;;;;;;;;;;;;;22.46;27.94;97750.56;5003184;28;942;-79
2021/08/31 01:46:06;;;;;;;;;;;;;;;22.38;28.32;97752.03;5003346;28;918;-79
2021/08/31 01:48:37;;;;;;;;;;;;;;;22.52;28.18;97745.91;5002513;28;976;-79
2021/08/31 01:51:03;;;;;;;;;;;;;;;22.51;28.15;97744.31;5003651;28;815;-79
2021/08/31 01:53:28;;;;;;;;;;;;;;;22.59;27.89;97748.50;5002695;28;1894;-79
2021/08/31 01:55:54;;;;;;;;;;;;;;;22.35;27.96;97750.94;5004731;28;593;-79
2021/08/31 01:58:19;;;;;;;;;;;;;;;22.61;27.96;97746.00;5003426;28;1055;-78
2021/08/31 02:00:46;;;;;;;;;;;;;;;22.46;27.88;97744.91;5004225;28;972;-79
2021/08/31 02:03:11;;;;;;;;;;;;;;;22.65;27.93;97754.38;5002593;28;838;-79
2021/08/31 02:05:37;;;;;;;;;;;;;;;22.60;27.95;97755.75;5003799;28;639;-79
2021/08/31 02:08:02;;;;;;;;;;;;;;;22.57;27.76;97756.66;5003547;28;647;-79
2021/08/31 02:10:28;;;;;;;;;;;;;;;22.50;28.01;97768.25;5003413;28;1301;-79
2021/08/31 02:12:54;;;;;;;;;;;;;;;22.57;27.88;97759.50;5003333;28;1890;-79
2021/08/31 02:15:19;;;;;;;;;;;;;;;22.48;27.89;97762.22;5003208;28;939;-79
2021/08/31 02:17:45;;;;;;;;;;;;;;;22.48;27.85;97765.84;5003672;28;920;-79
2021/08/31 02:20:10;;;;;;;;;;;;;;;22.34;28.10;97769.97;5003577;28;730;-79
2021/08/31 02:22:36;;;;;;;;;;;;;;;22.50;27.77;97773.91;5003792;28;730;-79
2021/08/31 02:25:01;;;;;;;;;;;;;;;22.47;27.72;97775.63;5002481;28;794;-79
2021/08/31 02:27:27;;;;;;;;;;;;;;;22.47;27.96;97769.16;5002640;28;1101;-79
2021/08/31 02:29:52;;;;;;;;;;;;;;;22.41;28.15;97770.97;5002698;28;1015;-79
2021/08/31 02:32:19;;;;;;;;;;;;;;;22.40;27.84;97763.72;5003697;28;2159;-79
2021/08/31 02:34:45;;;;;;;;;;;;;;;22.36;28.15;97763.84;5003184;28;655;-79
2021/08/31 02:37:10;;;;;;;;;;;;;;;22.28;28.13;97762.50;5002420;28;933;-79
2021/08/31 02:39:36;;;;;;;;;;;;;;;22.39;27.71;97762.16;5001897;28;885;-79
2021/08/31 02:42:01;;;;;;;;;;;;;;;22.41;28.14;97765.31;5003007;28;1041;-79
2021/08/31 02:44:27;;;;;;;;;;;;;;;22.35;27.84;97767.94;5002760;28;924;-79
2021/08/31 02:46:53;;;;;;;;;;;;;;;22.33;27.96;97764.78;5002658;28;843;-79
2021/08/31 02:49:18;;;;;;;;;;;;;;;22.54;27.45;97769.72;5001991;28;656;-78
2021/08/31 02:51:44;;;;;;;;;;;;;;;22.43;27.90;97774.16;5002819;28;663;-79
2021/08/31 02:54:09;;;;;;;;;;;;;;;22.29;27.91;97770.56;5001624;28;1898;-78
2021/08/31 02:56:35;;;;;;;;;;;;;;;22.28;28.01;97773.84;5001696;28;921;-78
2021/08/31 02:59:00;;;;;;;;;;;;;;;22.56;27.43;97777.75;5001105;28;901;-78
2021/08/31 03:03:57;;;;;;;;;;;;;;;22.30;28.27;97777.00;5002110;28;694;-78
2021/08/31 03:06:23;;;;;;;;;;;;;;;22.28;27.93;97779.50;5001528;28;842;-78
2021/08/31 03:08:49;;;;;;;;;;;;;;;22.35;27.76;97777.22;5001385;28;662;-79
2021/08/31 03:11:14;;;;;;;;;;;;;;;22.51;27.55;97775.50;5001375;28;1035;-78
2021/08/31 03:13:40;;;;;;;;;;;;;;;22.47;27.87;97774.81;5000336;28;1965;-78
2021/08/31 03:16:05;;;;;;;;;;;;;;;22.67;27.29;97775.34;5002578;28;963;-78
2021/08/31 03:18:31;;;;;;;;;;;;;;;22.54;27.47;97774.59;5000388;28;1028;-79
2021/08/31 03:20:58;;;;;;;;;;;;;;;22.28;27.99;97780.31;5001291;28;931;-78
2021/08/31 03:23:23;;;;;;;;;;;;;;;22.35;27.95;97785.72;5000886;28;677;-78
2021/08/31 03:25:49;;;;;;;;;;;;;;;22.44;27.62;97792.75;5002042;28;1067;-78
2021/08/31 03:28:14;;;;;;;;;;;;;;;22.47;27.79;97791.84;5000718;28;911;-79
2021/08/31 03:30:40;;;;;;;;;;;;;;;22.36;27.85;97801.47;5001466;28;955;-78
2021/08/31 03:33:05;;;;;;;;;;;;;;;22.39;27.78;97801.84;5000565;28;1967;-78
2021/08/31 03:35:31;;;;;;;;;;;;;;;22.23;27.88;97792.22;5001984;28;687;-78
2021/08/31 03:37:56;;;;;;;;;;;;;;;22.34;27.78;97809.66;5001624;28;751;-78
2021/08/31 03:40:22;;;;;;;;;;;;;;;22.38;28.01;97812.34;5001341;28;1054;-78
2021/08/31 03:42:47;;;;;;;;;;;;;;;22.53;27.85;97807.00;5001011;28;982;-78
2021/08/31 03:45:13;;;;;;;;;;;;;;;22.38;27.83;97800.22;5001144;28;976;-78
2021/08/31 03:47:39;;;;;;;;;;;;;;;22.39;27.79;97801.84;4984422;28;1362;-78
2021/08/31 03:50:05;;;;;;;;;;;;;;;22.43;28.01;97802.50;5001575;28;690;-79
2021/08/31 03:52:30;;;;;;;;;;;;;;;22.60;27.80;97801.91;5002232;28;1993;-78
2021/08/31 03:54:56;;;;;;;;;;;;;;;22.50;28.11;97802.28;5001272;28;958;-79
2021/08/31 03:57:21;;;;;;;;;;;;;;;22.48;27.95;97799.88;5001640;28;898;-79
2021/08/31 03:59:47;;;;;;;;;;;;;;;22.50;28.05;97807.94;5000516;28;975;-78
2021/08/31 04:02:12;;;;;;;;;;;;;;;22.50;27.93;97810.78;4998163;28;1301;-78
2021/08/31 04:04:38;;;;;;;;;;;;;;;22.52;28.00;97808.28;4992266;28;1400;-79
2021/08/31 04:07:03;;;;;;;;;;;;;;;22.65;27.78;97814.72;4985324;28;1247;-79
2021/08/31 04:09:29;;;;;;;;;;;;;;;22.48;27.98;97810.44;5001054;28;1041;-78
2021/08/31 04:11:54;;;;;;;;;;;;;;;22.41;28.45;97819.19;5001414;28;900;-78
2021/08/31 04:14:20;;;;;;;;;;;;;;;22.50;28.08;97824.97;5001382;28;976;-78
2021/08/31 04:16:45;;;;;;;;;;;;;;;22.32;28.30;97834.81;5000930;28;774;-78
2021/08/31 04:19:11;;;;;;;;;;;;;;;22.41;28.48;97830.50;5001197;28;615;-78
2021/08/31 04:21:36;;;;;;;;;;;;;;;22.38;28.26;97822.91;5001903;28;741;-78
2021/08/31 04:24:03;;;;;;;;;;;;;;;22.47;28.18;97823.03;5000595;28;873;-78
2021/08/31 04:26:30;;;;;;;;;;;;;;;22.49;28.21;97829.03;5000745;28;824;-79
2021/08/31 04:28:56;;;;;;;;;;;;;;;22.41;28.38;97827.69;5001387;28;972;-78
2021/08/31 04:31:22;;;;;;;;;;;;;;;22.44;28.10;97838.91;5001709;28;1384;-78
2021/08/31 04:33:48;;;;;;;;;;;;;;;22.30;28.18;97843.00;4985579;28;1911;-79
2021/08/31 04:36:14;;;;;;;;;;;;;;;22.50;28.06;97830.63;5001460;28;1354;-78
2021/08/31 04:38:39;;;;;;;;;;;;;;;22.44;28.07;97835.28;5004002;28;1103;-78
2021/08/31 04:41:05;;;;;;;;;;;;;;;22.41;27.96;97848.31;5005555;28;877;-78
2021/08/31 04:43:30;;;;;;;;;;;;;;;22.55;27.88;97841.41;5004630;28;987;-78
2021/08/31 04:45:56;;;;;;;;;;;;;;;22.59;27.56;97839.25;5005797;28;699;-78
2021/08/31 04:48:21;;;;;;;;;;;;;;;22.45;28.02;97845.38;5004799;28;760;-78
2021/08/31 04:50:47;;;;;;;;;;;;;;;22.31;28.19;97847.41;5005698;28;698;-79
2021/08/31 04:53:12;;;;;;;;;;;;;;;22.63;27.74;97852.03;5004405;28;1978;-78
2021/08/31 04:55:37;;;;;;;;;;;;;;;22.56;27.83;97857.94;5003930;28;854;-78
2021/08/31 04:58:03;;;;;;;;;;;;;;;22.41;28.11;97856.81;5005023;28;874;-78
2021/08/31 05:00:28;;;;;;;;;;;;;;;22.58;27.81;97849.75;5003187;28;1353;-79
2021/08/31 05:02:56;;;;;;;;;;;;;;;22.50;28.14;97845.59;4985676;28;627;-78
2021/08/31 05:05:22;;;;;;;;;;;;;;;22.50;28.12;97853.31;4984866;28;632;-79
2021/08/31 05:07:48;;;;;;;;;;;;;;;22.48;28.01;97861.47;4997881;28;1350;-78
2021/08/31 05:10:13;;;;;;;;;;;;;;;22.38;28.54;97869.06;5004342;28;873;-79
2021/08/31 05:12:39;;;;;;;;;;;;;;;22.43;28.44;97871.31;5004757;28;1969;-79
2021/08/31 05:15:11;;;;;;;;;;;;;;;22.41;28.21;97870.19;5003412;28;888;-78
2021/08/31 05:17:36;;;;;;;;;;;;;;;22.39;28.10;97869.88;5004246;28;767;-79
2021/08/31 05:20:05;;;;;;;;;;;;;;;22.52;28.11;97856.47;5003728;28;627;-79
2021/08/31 05:22:31;;;;;;;;;;;;;;;22.52;28.27;97873.50;4988051;28;1350;-78
2021/08/31 05:25:06;;;;;;;;;;;;;;;22.57;28.38;97864.41;4983839;28;1417;-78
2021/08/31 05:27:32;;;;;;;;;;;;;;;22.51;28.54;97871.91;4985002;28;984;-79
2021/08/31 05:29:57;;;;;;;;;;;;;;;22.55;28.39;97866.91;4983963;28;1437;-79
2021/08/31 05:32:23;;;;;;;;;;;;;;;22.48;28.35;97864.28;4967357;28;1903;-79
2021/08/31 05:34:49;;;;;;;;;;;;;;;22.56;28.22;97862.81;4983543;28;893;-78
2021/08/31 05:37:15;;;;;;;;;;;;;;;22.59;28.20;97867.59;4984799;28;1001;-79
2021/08/31 05:39:40;;;;;;;;;;;;;;;22.52;28.45;97873.50;4983532;28;902;-79
2021/08/31 05:42:06;;;;;;;;;;;;;;;22.48;28.78;97869.97;4984452;28;792;-78
2021/08/31 05:44:32;;;;;;;;;;;;;;;22.71;28.14;97863.16;4983734;28;711;-79
2021/08/31 05:46:58;;;;;;;;;;;;;;;22.54;28.34;97868.16;4984917;28;638;-78
2021/08/31 05:49:26;;;;;;;;;;;;;;;22.55;28.72;97856.38;4984509;28;640;-79
2021/08/31 05:51:53;;;;;;;;;;;;;;;22.58;28.71;97861.09;4987099;28;1393;-78
2021/08/31 05:54:20;;;;;;;;;;;;;;;22.45;28.73;97862.38;5002739;28;1899;-78
2021/08/31 05:56:46;;;;;;;;;;;;;;;22.59;28.75;97861.94;5003175;28;860;-78
2021/08/31 05:59:11;;;;;;;;;;;;;;;22.63;28.43;97854.06;5003051;28;698;-79
2021/08/31 06:01:37;;;;;;;;;;;;;;;22.66;28.49;97864.53;5003831;28;697;-78
2021/08/31 06:04:02;;;;;;;;;;;;;;;22.58;28.71;97860.31;5003501;28;749;-78
2021/08/31 06:06:28;;;;;;;;;;;;;;;22.58;28.62;97860.31;5003601;28;925;-78
2021/08/31 06:08:54;;;;;;;;;;;;;;;22.62;28.90;97863.84;4990106;28;1368;-78
2021/08/31 06:11:21;;;;;;;;;;;;;;;22.64;28.73;97858.53;4984614;28;1074;-78
2021/08/31 06:13:47;;;;;;;;;;;;;;;22.52;28.78;97867.81;4983584;28;1923;-78
2021/08/31 06:16:12;;;;;;;;;;;;;;;22.54;28.91;97868.97;4984204;28;611;-78
2021/08/31 06:18:38;;;;;;;;;;;;;;;22.63;28.86;97862.59;4982628;28;806;-78
2021/08/31 06:21:03;;;;;;;;;;;;;;;22.55;29.04;97866.91;4983526;28;835;-78
2021/08/31 06:23:29;;;;;;;;;;;;;;;22.60;29.04;97860.69;4997439;28;1381;-78
2021/08/31 06:25:54;;;;;;;;;;;;;;;22.62;28.82;97872.34;5003783;28;837;-79
2021/08/31 06:28:21;;;;;;;;;;;;;;;22.65;28.87;97854.44;5002179;28;1011;-79
2021/08/31 06:30:47;;;;;;;;;;;;;;;22.58;28.90;97860.31;5002599;28;803;-79
2021/08/31 06:33:13;;;;;;;;;;;;;;;22.72;28.65;97864.75;5001378;28;1910;-79
2021/08/31 06:35:38;;;;;;;;;;;;;;;22.67;28.80;97863.25;5002644;28;912;-79
2021/08/31 06:38:04;;;;;;;;;;;;;;;22.76;28.68;97860.53;5002612;28;932;-78
2021/08/31 06:40:29;;;;;;;;;;;;;;;22.65;29.33;97871.44;5002537;28;960;-79
2021/08/31 06:42:55;;;;;;;;;;;;;;;22.60;29.14;97874.84;5001485;28;1424;-79
2021/08/31 06:45:20;;;;;;;;;;;;;;;22.57;29.32;97876.53;5002237;28;1322;-79
2021/08/31 06:47:46;;;;;;;;;;;;;;;22.62;29.15;97872.34;5002894;28;619;-78
2021/08/31 06:50:14;;;;;;;;;;;;;;;22.77;29.00;97867.78;5002012;28;938;-79
2021/08/31 06:52:40;;;;;;;;;;;;;;;22.81;28.99;97868.47;5001751;28;1871;-79
2021/08/31 06:55:06;;;;;;;;;;;;;;;22.73;29.04;97878.44;4988844;28;1416;-78
2021/08/31 06:57:31;;;;;;;;;;;;;;;22.76;28.76;97877.56;4986131;28;1705;-78
2021/08/31 06:59:57;;;;;;;;;;;;;;;22.95;28.71;97883.44;5002085;28;686;-78
2021/08/31 07:02:22;;;;;;;;;;;;;;;22.76;29.12;97888.09;4991677;28;1383;-78
2021/08/31 07:04:48;;;;;;;;;;;;;;;22.76;28.88;97888.91;4982655;28;978;-78
2021/08/31 07:07:13;;;;;;;;;;;;;;;22.79;28.76;97890.81;4982912;28;873;-80
2021/08/31 07:09:39;;;;;;;;;;;;;;;22.80;28.89;97892.41;4982017;28;906;-78
2021/08/31 07:12:05;;;;;;;;;;;;;;;22.84;28.88;97901.59;4983574;28;1894;-78
2021/08/31 07:14:32;;;;;;;;;;;;;;;22.77;28.79;97889.69;4982482;28;643;-78
2021/08/31 07:16:58;;;;;;;;;;;;;;;22.76;28.97;97900.25;4985459;28;1326;-79
2021/08/31 07:19:23;;;;;;;;;;;;;;;22.79;28.89;97905.00;5000949;28;1504;-78
2021/08/31 07:21:50;;;;;;;;;;;;;;;22.71;28.88;97917.84;5001562;28;898;-78
2021/08/31 07:24:15;;;;;;;;;;;;;;;22.66;29.00;97904.22;5001826;28;858;-79
2021/08/31 07:26:41;;;;;;;;;;;;;;;22.75;29.02;97904.34;5001919;28;651;-79
2021/08/31 07:29:06;;;;;;;;;;;;;;;22.83;28.81;97894.31;4999620;28;1374;-79
2021/08/31 07:31:33;;;;;;;;;;;;;;;22.85;29.09;97906.03;5002848;28;675;-79
2021/08/31 07:33:59;;;;;;;;;;;;;;;22.83;29.14;97904.88;4994935;28;1993;-78
2021/08/31 07:36:24;;;;;;;;;;;;;;;22.84;28.99;97904.41;4982705;28;884;-77
2021/08/31 07:38:50;;;;;;;;;;;;;;;22.69;28.94;97900.50;4982491;28;977;-78
2021/08/31 07:41:15;;;;;;;;;;;;;;;22.83;28.67;97900.00;4983205;28;1429;-79
2021/08/31 07:43:42;;;;;;;;;;;;;;;22.93;28.86;97891.63;4993223;28;718;-78
2021/08/31 07:46:07;;;;;;;;;;;;;;;22.86;28.93;97893.44;4973475;28;1448;-78
2021/08/31 07:48:33;;;;;;;;;;;;;;;22.69;29.21;97899.66;4999885;28;910;-79
2021/08/31 07:50:58;;;;;;;;;;;;;;;22.76;29.01;97894.56;5002217;28;860;-79
2021/08/31 07:53:24;;;;;;;;;;;;;;;22.66;28.95;97890.03;5001116;28;1942;-79
2021/08/31 07:55:49;;;;;;;;;;;;;;;22.75;29.15;97886.53;5002248;28;650;-79
2021/08/31 07:58:14;;;;;;;;;;;;;;;22.71;29.31;97886.63;4993890;28;1475;-79
2021/08/31 08:00:41;;;;;;;;;;;;;;;22.75;29.05;97887.31;4989832;28;832;-79
2021/08/31 08:03:06;;;;;;;;;;;;;;;22.86;28.86;97890.59;5001565;28;952;-77
2021/08/31 08:05:33;;;;;;;;;;;;;;;22.71;29.03;97897.97;4966661;28;1544;-78
2021/08/31 08:08:02;;;;;;;;;;;;;;;22.84;28.88;97884.56;4962697;29;955;-79
2021/08/31 08:10:28;;;;;;;;;;;;;;;22.91;28.85;97877.91;4973290;28;1283;-78
2021/08/31 08:12:55;;;;;;;;;;;;;;;22.86;28.99;97881.28;4978960;28;1989;-77
2021/08/31 08:15:43;;;;;;;;;;;;;;;22.85;28.96;97868.34;4992350;28;1388;-79
2021/08/31 08:18:09;;;;;;;;;;;;;;;22.99;28.48;97878.44;4989117;28;1388;-77
2021/08/31 08:20:35;;;;;;;;;;;;;;;22.86;28.65;97870.72;5000449;28;955;-76
2021/08/31 08:23:01;;;;;;;;;;;;;;;22.91;28.64;97882.78;5000688;28;620;-77
2021/08/31 08:25:29;;;;;;;;;;;;;;;22.83;28.68;97865.16;4999707;28;788;-77
2021/08/31 08:27:55;;;;;;;;;;;;;;;22.95;28.69;97860.75;5000852;28;791;-78
2021/08/31 08:30:33;;;;;;;;;;;;;;;22.83;29.06;97865.97;4998359;28;1427;-77
2021/08/31 08:32:59;;;;;;;;;;;;;;;22.84;28.83;97859.03;4980626;28;1902;-76
2021/08/31 08:35:33;;;;;;;;;;;;;;;22.92;28.95;97868.13;4977972;28;1027;-79
2021/08/31 08:38:00;;;;;;;;;;;;;;;22.80;29.02;97861.22;5000347;28;1003;-77
2021/08/31 08:40:26;;;;;;;;;;;;;;;22.88;28.97;97859.72;4991011;28;714;-78
2021/08/31 08:42:54;;;;;;;;;;;;;;;22.92;28.98;97873.03;4981032;28;1349;-78
2021/08/31 08:45:20;;;;;;;;;;;;;;;22.68;29.13;97859.19;4981170;28;695;-79
2021/08/31 08:47:46;;;;;;;;;;;;;;;22.75;29.21;97847.59;4957367;28;1242;-78
2021/08/31 08:50:12;;;;;;;;;;;;;;;22.70;28.87;97850.22;4976158;28;1384;-79
2021/08/31 08:52:39;;;;;;;;;;;;;;;22.83;28.78;97848.16;4980943;28;1931;-78
2021/08/31 08:55:09;;;;;;;;;;;;;;;22.97;28.51;97838.38;4980031;28;1551;-79
2021/08/31 08:57:34;;;;;;;;;;;;;;;22.81;28.75;97848.63;4978362;28;1444;-78
2021/08/31 09:00:00;;;;;;;;;;;;;;;22.91;28.83;97849.53;4964253;28;1443;-79
2021/08/31 09:02:42;;;;;;;;;;;;;;;22.62;29.40;97852.50;4978395;28;1342;-79
2021/08/31 09:05:09;;;;;;;;;;;;;;;22.77;28.96;97845.09;4980338;28;1281;-78
2021/08/31 09:07:35;;;;;;;;;;;;;;;22.84;28.82;97850.50;4980464;28;1396;-76
2021/08/31 09:10:17;;;;;;;;;;;;;;;22.94;28.61;97851.44;4994464;28;1317;-79
2021/08/31 09:12:45;;;;;;;;;;;;;;;22.94;28.96;97842.91;4980827;28;1946;-78
2021/08/31 09:15:29;;;;;;;;;;;;;;;22.98;28.75;97843.59;4980744;28;728;-78
2021/08/31 09:18:07;;;;;;;;;;;;;;;22.95;28.71;97843.72;4981947;28;1290;-78
2021/08/31 09:20:37;;;;;;;;;;;;;;;22.81;29.14;97834.44;4981512;28;1194;-79
2021/08/31 09:23:03;;;;;;;;;;;;;;;22.85;28.65;97846.44;4982684;28;1231;-78
2021/08/31 09:25:35;;;;;;;;;;;;;;;22.98;28.64;97843.59;4982239;28;1385;-78
2021/08/31 09:28:01;;;;;;;;;;;;;;;22.88;28.91;97839.09;4982858;28;1261;-78
2021/08/31 09:30:27;;;;;;;;;;;;;;;22.86;29.14;97838.72;4983616;28;1444;-78
2021/08/31 09:32:59;;;;;;;;;;;;;;;23.01;28.70;97833.38;4984058;28;1910;-78
2021/08/31 09:35:24;;;;;;;;;;;;;;;22.96;28.90;97845.31;4982634;28;1427;-78
2021/08/31 09:37:51;;;;;;;;;;;;;;;22.93;28.85;97840.56;4984250;28;1170;-78
2021/08/31 09:40:25;;;;;;;;;;;;;;;23.03;28.88;97833.72;4982514;28;1275;-78
2021/08/31 09:42:52;;;;;;;;;;;;;;;22.91;29.07;97826.03;4983896;28;627;-78
2021/08/31 09:45:21;;;;;;;;;;;;;;;23.00;28.90;97826.09;4983760;28;1337;-78
2021/08/31 09:47:46;;;;;;;;;;;;;;;22.83;29.00;97820.56;4981742;28;1322;-78
2021/08/31 09:50:11;;;;;;;;;;;;;;;23.10;28.92;97830.63;4978116;28;1345;-78
2021/08/31 09:52:37;;;;;;;;;;;;;;;23.15;28.57;97813.00;4983295;28;1991;-78
2021/08/31 09:55:03;;;;;;;;;;;;;;;23.03;28.88;97822.38;4982381;28;1269;-78
2021/08/31 09:57:28;;;;;;;;;;;;;;;23.01;28.65;97816.38;4982420;28;1373;-78
2021/08/31 09:59:54;;;;;;;;;;;;;;;22.97;29.02;97812.84;4982626;28;1401;-79
2021/08/31 10:02:19;;;;;;;;;;;;;;;23.07;28.66;97806.00;4979608;28;1670;-77
2021/08/31 10:04:45;;;;;;;;;;;;;;;23.02;28.78;97803.75;4981312;28;1235;-79
2021/08/31 10:07:10;;;;;;;;;;;;;;;23.01;29.01;97802.97;4982660;28;1207;-78
2021/08/31 10:09:37;;;;;;;;;;;;;;;23.07;28.56;97800.34;4981151;28;1340;-78
2021/08/31 10:12:04;;;;;;;;;;;;;;;23.04;28.72;97809.75;4983287;28;647;-78
2021/08/31 10:14:30;;;;;;;;;;;;;;;23.05;28.64;97797.97;4997211;28;1894;-78
2021/08/31 10:16:55;;;;;;;;;;;;;;;22.94;29.10;97800.38;4981277;28;1349;-78
2021/08/31 10:19:21;;;;;;;;;;;;;;;22.94;29.09;97806.03;4981860;28;1310;-78
2021/08/31 10:21:46;;;;;;;;;;;;;;;22.95;29.05;97804.00;4968540;28;1421;-78
2021/08/31 10:24:12;;;;;;;;;;;;;;;23.01;28.70;97797.28;4970919;28;1335;-79
2021/08/31 10:26:38;;;;;;;;;;;;;;;22.98;28.78;97808.75;4982885;28;1428;-78
2021/08/31 10:29:23;;;;;;;;;;;;;;;22.94;29.12;97803.19;4991372;28;991;-78
2021/08/31 10:31:49;;;;;;;;;;;;;;;22.96;28.97;97808.44;5000055;28;1330;-78
2021/08/31 10:34:30;;;;;;;;;;;;;;;22.99;28.87;97793.31;4983527;28;1985;-78
2021/08/31 10:37:06;;;;;;;;;;;;;;;23.12;29.03;97794.06;4973220;28;1391;-78
2021/08/31 10:39:47;;;;;;;;;;;;;;;22.96;29.14;97794.25;4983728;28;1362;-78
2021/08/31 10:42:32;;;;;;;;;;;;;;;22.93;29.43;97800.84;4989999;28;1318;-78
2021/08/31 10:44:58;;;;;;;;;;;;;;;23.17;28.73;97793.47;4982967;28;939;-78
2021/08/31 10:47:27;;;;;;;;;;;;;;;23.04;29.18;97792.72;4994805;28;1837;-79
2021/08/31 10:49:59;;;;;;;;;;;;;;;22.84;29.25;97788.09;4981925;28;1314;-78
2021/08/31 10:52:35;;;;;;;;;;;;;;;23.03;29.22;97783.44;4997039;28;1906;-79
2021/08/31 10:55:00;;;;;;;;;;;;;;;23.06;28.97;97787.41;4999755;28;1357;-78
2021/08/31 10:57:35;;;;;;;;;;;;;;;23.11;29.10;97784.75;5000860;28;1333;-78
2021/08/31 11:00:01;;;;;;;;;;;;;;;22.95;29.29;97787.78;4985261;28;715;-78
2021/08/31 11:02:45;;;;;;;;;;;;;;;22.95;29.31;97787.78;4966105;28;1301;-78
2021/08/31 11:05:32;;;;;;;;;;;;;;;22.96;29.52;97788.56;5000960;28;1346;-78
2021/08/31 11:07:57;;;;;;;;;;;;;;;23.08;29.38;97779.22;5000868;28;1329;-78
2021/08/31 11:10:23;;;;;;;;;;;;;;;23.13;29.25;97781.47;4999437;28;1196;-77
2021/08/31 11:12:49;;;;;;;;;;;;;;;23.13;29.21;97781.47;4980724;28;1898;-78
2021/08/31 11:15:18;;;;;;;;;;;;;;;23.20;29.01;97786.06;4997027;28;1366;-78
2021/08/31 11:17:46;;;;;;;;;;;;;;;22.97;29.41;97779.59;4997129;28;1361;-78
2021/08/31 11:20:20;;;;;;;;;;;;;;;23.01;29.53;97779.47;4982018;28;904;-78
2021/08/31 11:22:49;;;;;;;;;;;;;;;21.41;29.43;97522.19;4969134;28;1365;-77
2021/08/31 11:25:15;;;;;;;;;;;;;;;22.88;29.44;97777.47;4992590;28;1378;-77
2021/08/31 11:27:57;;;;;;;;;;;;;;;23.07;29.25;97777.63;4985405;28;834;-79
2021/08/31 11:30:23;;;;;;;;;;;;;;;23.07;29.05;97760.59;5000385;28;1232;-78
2021/08/31 11:32:48;;;;;;;;;;;;;;;23.24;29.12;97770.50;4995936;28;1970;-78
2021/08/31 11:35:14;;;;;;;;;;;;;;;23.05;29.03;97777.28;4995805;28;1400;-78
2021/08/31 11:37:51;;;;;;;;;;;;;;;23.03;29.54;97777.75;4981825;28;1022;-78
2021/08/31 11:40:26;;;;;;;;;;;;;;;23.08;29.51;97773.53;4960055;28;1240;-79
2021/08/31 11:42:52;;;;;;;;;;;;;;;23.13;29.24;97770.09;4984450;28;773;-78
2021/08/31 11:45:18;;;;;;;;;;;;;;;22.98;29.30;97769.81;4974548;28;1200;-78
2021/08/31 11:47:43;;;;;;;;;;;;;;;23.00;29.60;97772.19;4992625;28;1229;-78
2021/08/31 11:50:09;;;;;;;;;;;;;;;22.89;29.52;97766.91;5001535;28;875;-78
2021/08/31 11:52:34;;;;;;;;;;;;;;;22.98;29.34;97763.38;4997586;28;1898;-78
2021/08/31 11:55:00;;;;;;;;;;;;;;;23.06;29.48;97765.50;4999957;28;1417;-78
2021/08/31 11:57:29;;;;;;;;;;;;;;;23.04;29.46;97762.31;5001461;28;745;-78
2021/08/31 11:59:55;;;;;;;;;;;;;;;23.07;29.45;97761.41;4982278;28;1428;-78
2021/08/31 12:02:23;;;;;;;;;;;;;;;23.11;29.54;97755.59;4974625;28;1329;-78
2021/08/31 12:04:58;;;;;;;;;;;;;;;23.16;29.33;97746.50;4999770;28;1428;-78
2021/08/31 12:07:24;;;;;;;;;;;;;;;23.16;29.15;97768.38;5001349;28;881;-78
2021/08/31 12:09:50;;;;;;;;;;;;;;;23.19;29.12;97751.22;4976964;28;1353;-78
2021/08/31 12:12:16;;;;;;;;;;;;;;;23.01;29.50;97762.44;4977152;28;1958;-78
2021/08/31 12:14:41;;;;;;;;;;;;;;;23.30;29.02;97756.50;4981718;28;661;-78
2021/08/31 12:17:08;;;;;;;;;;;;;;;23.10;29.70;97745.47;4995360;28;1527;-79
2021/08/31 12:19:33;;;;;;;;;;;;;;;23.08;29.69;97745.94;4983985;28;1010;-78
2021/08/31 12:22:12;;;;;;;;;;;;;;;23.02;29.47;97747.00;4982068;28;1282;-78
2021/08/31 12:24:38;;;;;;;;;;;;;;;22.95;29.95;97753.75;4979931;28;1169;-79
2021/08/31 12:27:13;;;;;;;;;;;;;;;23.16;29.39;97752.16;4996917;28;1254;-78
2021/08/31 12:29:50;;;;;;;;;;;;;;;23.09;29.59;97749.56;4996242;28;1121;-78
2021/08/31 12:32:25;;;;;;;;;;;;;;;22.96;29.83;97743.19;4992012;28;1939;-78
2021/08/31 12:34:51;;;;;;;;;;;;;;;22.95;29.68;97744.41;4979639;28;1192;-78
2021/08/31 12:37:29;;;;;;;;;;;;;;;23.13;29.30;97744.56;4981688;28;859;-78
2021/08/31 12:40:11;;;;;;;;;;;;;;;23.06;29.66;97747.69;4991843;28;1355;-78
2021/08/31 12:42:36;;;;;;;;;;;;;;;23.00;29.83;97738.97;4982418;28;1377;-78
2021/08/31 12:45:02;;;;;;;;;;;;;;;22.99;29.88;97742.25;4995080;28;1472;-78
2021/08/31 12:47:27;;;;;;;;;;;;;;;22.85;29.85;97738.66;4995778;28;1268;-78
2021/08/31 12:49:53;;;;;;;;;;;;;;;23.03;29.53;97737.22;4982911;28;960;-78
2021/08/31 12:52:20;;;;;;;;;;;;;;;23.16;29.43;97740.00;4988526;28;1971;-78
2021/08/31 12:54:45;;;;;;;;;;;;;;;23.16;29.50;97731.47;4983256;28;1365;-78
2021/08/31 12:57:11;;;;;;;;;;;;;;;23.21;29.39;97731.72;4984235;28;1365;-78
2021/08/31 12:59:42;;;;;;;;;;;;;;;23.03;29.56;97725.88;5000770;28;1259;-78
2021/08/31 13:02:08;;;;;;;;;;;;;;;23.02;29.48;97735.66;4970731;28;1427;-78
2021/08/31 13:04:34;;;;;;;;;;;;;;;23.12;29.32;97734.47;4999071;28;1361;-78